Terminal Aerodrome Forecast
Issued by NWS

Home | Current Version | Previous Version | Graphics & Text | Print | Product List | Glossary On
Versions: 1 2 3 4 5 6 7 8 9 10 11 12 13 14 15 16 17 18 19 20 21
000
FTUS43 KABR 252325
TAFATY
TAF
KATY 252325Z 2600/2624 01019G26KT P6SM OVC008
     FM260300 36016G25KT P6SM VCSH OVC007
     FM260800 36015G24KT 5SM -SN OVC007
     FM261800 34016G24KT P6SM OVC015=

USA.gov is the U.S. government's official web portal to all federal, state and local government web resources and services.